Terminal Aerodrome Forecast
Issued by NWS Mt. Holly, NJ

Home | Current Version | Previous Version | Text Only | Print | Product List | Glossary On
Versions: 1 2 3 4 5 6 7 8 9 10 11 12 13 14 15 16 17 18 19 20 21 22 23 24 25 26
000
FTUS41 KPHI 221700
TAFRDG
TAF
KRDG 221733Z 2218/2318 04003KT P6SM OVC018
     FM222000 06005KT P6SM VCSH OVC025
     FM230300 09005KT P6SM OVC015
     FM230900 10004KT 5SM BR VCSH OVC007
     FM231500 09006KT P6SM VCSH OVC015=

USA.gov is the U.S. government's official web portal to all federal, state and local government web resources and services.